Flight Track Log - Related Links

Times and Time Zones

All times are in EDT time to prevent confusion due to time zone crossing. See the ASQ4179 flight status page for this flight to view local times or setup timezone preferences in your user account.

Time Position Orientation Groundspeed Altitude Reporting Facility
EDT Latitude Longitude Course Direction KTS MPH feet Rate Location/Type
Fri 06:04:01 AM 35.8664 -78.8139 261° West 168 193 1,200  Level Washington Center
Fri 06:05:09 AM 35.8278 -78.8583 223° Southwest 186 214 3,100 1,828 Climbing Washington Center
Fri 06:06:00 AM 35.8427 -79.1904 263° West  Level FlightAware Approximate
Fri 06:06:09 AM 35.8233 -78.9375 266° West 252 290 5,100  Level Washington Center
Fri 06:07:00 AM 35.8305 -79.3259 262° West  Level FlightAware Approximate
Fri 06:07:30 AM 35.8283 -79.0583 273° West 262 302 8,600  Level Washington Center
Fri 06:08:00 AM 35.8167 -79.4613 270° West  Level FlightAware Approximate
Fri 06:08:33 AM 35.8319 -79.1481 273° West 262 302 10,600  Level Washington Center
Fri 06:09:00 AM 35.7953 -79.5875 261° West  Level FlightAware Approximate
Fri 06:09:31 AM 35.8333 -79.2403 271° West 271 312 12,000  Level Washington Center
Fri 06:10:31 AM 35.8322 -79.3478 269° West 293 337 13,300 1,200 Climbing Washington Center
Fri 06:12:21 AM 35.8139 -79.5625 264° West 335 386 15,400 1,059 Climbing Atlanta Center
Fri 06:13:21 AM 35.7931 -79.6789 258° West 335 386 16,300 1,100 Climbing Atlanta Center
Fri 06:14:21 AM 35.7742 -79.7900 258° West 354 407 17,600 1,400 Climbing Atlanta Center
Fri 06:15:21 AM 35.7531 -79.9061 257° West 361 415 19,100 1,650 Climbing Atlanta Center
Fri 06:16:21 AM 35.7319 -80.0250 258° West 361 415 20,900 1,450 Climbing Atlanta Center
Fri 06:17:21 AM 35.7106 -80.1436 258° West 355 409 22,000 1,400 Climbing Atlanta Center
Fri 06:18:21 AM 35.6897 -80.2700 259° West 355 409 23,700 1,450 Climbing Atlanta Center
Fri 06:19:21 AM 35.6703 -80.3858 258° West 350 403 24,900 1,150 Climbing Atlanta Center
Fri 06:20:21 AM 35.6422 -80.4969 253° West 350 403 26,000 1,200 Climbing Atlanta Center
Fri 06:21:21 AM 35.5886 -80.5964 236° Southwest 345 397 27,300 1,200 Climbing Atlanta Center
Fri 06:22:21 AM 35.5411 -80.6878 237° Southwest 350 403 28,400 1,250 Climbing Atlanta Center
Fri 06:23:21 AM 35.4872 -80.7842 236° Southwest 356 410 29,800 1,400 Climbing Atlanta Center
Fri 06:24:21 AM 35.4336 -80.8833 236° Southwest 356 410 31,200 1,250 Climbing Atlanta Center
Fri 06:25:21 AM 35.3797 -80.9819 236° Southwest 356 410 32,300 1,150 Climbing Atlanta Center
Fri 06:26:21 AM 35.3219 -81.0936 238° Southwest 356 410 33,500 1,100 Climbing Atlanta Center
Fri 06:27:21 AM 35.2681 -81.1897 236° Southwest 356 410 34,500 950 Climbing Atlanta Center
Fri 06:28:21 AM 35.2158 -81.2881 237° Southwest 351 404 35,400 700 Climbing Atlanta Center
Fri 06:29:21 AM 35.1639 -81.3864 237° Southwest 351 404 35,900 300 Climbing Atlanta Center
Fri 06:30:21 AM 35.1075 -81.4847 235° Southwest 351 404 36,000 50 Climbing Atlanta Center
Fri 06:31:21 AM 35.0511 -81.5903 237° Southwest 366 421 36,000  Level Atlanta Center
Fri 06:32:21 AM 34.9969 -81.6908 237° Southwest 385 443 36,000  Level Atlanta Center
Fri 06:33:21 AM 34.9322 -81.8042 235° Southwest 402 463 36,000  Level Atlanta Center
Fri 06:34:21 AM 34.8656 -81.9250 236° Southwest 420 483 36,000  Level Atlanta Center
Fri 06:35:21 AM 34.8006 -82.0431 236° Southwest 431 496 36,000  Level Atlanta Center
Fri 06:36:21 AM 34.7256 -82.1686 234° Southwest 446 513 36,000  Level Atlanta Center
Fri 06:37:21 AM 34.6564 -82.2964 237° Southwest 452 520 36,000  Level Atlanta Center
Fri 06:38:21 AM 34.5828 -82.4189 234° Southwest 457 526 36,000  Level Atlanta Center
Fri 06:39:21 AM 34.5133 -82.5389 235° Southwest 452 520 36,000  Level Atlanta Center
Fri 06:40:21 AM 34.4419 -82.6611 235° Southwest 452 520 36,000  Level Atlanta Center
Fri 06:41:21 AM 34.3681 -82.7856 234° Southwest 457 526 36,000  Level Atlanta Center
Fri 06:42:21 AM 34.3003 -82.9097 237° Southwest 452 520 36,000  Level Atlanta Center
Fri 06:43:21 AM 34.2264 -83.0339 234° Southwest 457 526 36,000  Level Atlanta Center
Fri 06:44:21 AM 34.1522 -83.1603 235° Southwest 457 526 36,000  Level Atlanta Center
Fri 06:45:21 AM 34.0800 -83.2839 235° Southwest 457 526 36,000  Level Atlanta Center
Fri 06:46:21 AM 33.9994 -83.4225 235° Southwest 462 532 36,000  Level Atlanta Center
Fri 06:47:21 AM 33.9228 -83.5481 234° Southwest 467 537 36,000  Level Atlanta Center
Fri 06:48:21 AM 33.8500 -83.6736 235° Southwest 467 537 36,000  Level Atlanta Center
Fri 06:49:21 AM 33.7731 -83.8014 234° Southwest 467 537 36,000  Level Atlanta Center
Fri 06:50:21 AM 33.6981 -83.9289 235° Southwest 472 543 36,000  Level Atlanta Center
Fri 06:51:21 AM 33.6231 -84.0539 234° Southwest 472 543 36,000  Level Atlanta Center
Fri 06:52:21 AM 33.5478 -84.1808 235° Southwest 472 543 36,000  Level Atlanta Center
Fri 06:53:21 AM 33.4789 -84.2953 234° Southwest 477 549 36,000  Level Atlanta Center
Fri 06:54:21 AM 33.4033 -84.4219 234° Southwest 472 543 36,000  Level Atlanta Center
Fri 06:55:21 AM 33.3278 -84.5486 235° Southwest 472 543 36,000  Level Atlanta Center
Fri 06:56:21 AM 33.2519 -84.6747 234° Southwest 472 543 36,000  Level Atlanta Center
Fri 06:57:21 AM 33.1678 -84.8131 234° Southwest 472 543 36,000  Level Atlanta Center
Fri 06:58:21 AM 33.0917 -84.9389 234° Southwest 472 543 36,000  Level Atlanta Center
Fri 06:59:21 AM 33.0136 -85.0644 233° Southwest 477 549 36,000  Level Atlanta Center
Fri 07:00:21 AM 32.9353 -85.1822 232° Southwest 462 532 36,000  Level Atlanta Center
Fri 07:01:21 AM 32.8589 -85.3100 235° Southwest 457 526 36,000  Level Atlanta Center
Fri 07:02:21 AM 32.7825 -85.4347 234° Southwest 468 539 36,000  Level Atlanta Center
Fri 07:03:21 AM 32.7036 -85.5594 233° Southwest 473 544 36,000  Level Atlanta Center
Fri 07:04:21 AM 32.6247 -85.6839 233° Southwest 473 544 36,000  Level Atlanta Center
Fri 07:05:21 AM 32.5481 -85.8081 234° Southwest 473 544 36,000  Level Atlanta Center
Fri 07:06:21 AM 32.4625 -85.9394 232° Southwest 485 558 36,000  Level Atlanta Center
Fri 07:07:21 AM 32.3811 -86.0631 232° Southwest 485 558 36,000  Level Atlanta Center
Fri 07:08:21 AM 32.3081 -86.1892 236° Southwest 483 556 36,000  Level Atlanta Center
Fri 07:09:21 AM 32.2417 -86.2858 231° Southwest 475 547 36,000  Level Atlanta Center
Fri 07:10:21 AM 32.1514 -86.4356 235° Southwest 469 540 36,000  Level Atlanta Center
Fri 07:11:21 AM 32.0656 -86.5508 229° Southwest 469 540 36,000  Level Atlanta Center
Fri 07:12:21 AM 31.9817 -86.6686 230° Southwest 469 540 36,000  Level Atlanta Center
Fri 07:13:21 AM 31.8981 -86.7736 227° Southwest 486 559 36,000  Level Atlanta Center
Fri 07:14:21 AM 31.8119 -86.8908 229° Southwest 486 559 36,000  Level Atlanta Center
Fri 07:15:21 AM 31.7278 -87.0053 229° Southwest 476 548 36,000  Level Atlanta Center
Fri 07:16:21 AM 31.6389 -87.1367 232° Southwest 476 548 36,000  Level Atlanta Center
Fri 07:17:42 AM 31.5286 -87.2778 228° Southwest 477 549 36,000  Level Houston Center
Fri 07:18:43 AM 31.4433 -87.3958 230° Southwest 476 548 36,000  Level Houston Center
Fri 07:19:44 AM 31.3561 -87.5139 229° Southwest 479 551 36,000  Level Houston Center
Fri 07:20:45 AM 31.2689 -87.6336 230° Southwest 480 552 36,000  Level Houston Center
Fri 07:21:45 AM 31.1708 -87.7628 228° Southwest 481 554 36,000  Level Houston Center
Fri 07:22:46 AM 31.0836 -87.8814 229° Southwest 480 552 36,000  Level Houston Center
Fri 07:23:47 AM 30.9950 -87.9992 229° Southwest 483 556 36,000  Level Houston Center
Fri 07:24:48 AM 30.9056 -88.1181 229° Southwest 487 560 36,000  Level Houston Center
Fri 07:25:49 AM 30.8156 -88.2358 228° Southwest 488 562 36,000  Level Houston Center
Fri 07:26:49 AM 30.7306 -88.3564 231° Southwest 484 557 36,000  Level Houston Center
Fri 07:27:50 AM 30.6778 -88.4947 246° West 483 556 36,000  Level Houston Center
Fri 07:28:51 AM 30.6189 -88.6675 248° West 480 552 36,000  Level Houston Center
Fri 07:29:52 AM 30.5678 -88.8125 248° West 484 557 36,000  Level Houston Center
Fri 07:30:53 AM 30.5181 -88.9608 249° West 485 558 36,000  Level Houston Center
Fri 07:31:54 AM 30.4675 -89.1056 248° West 486 559 36,000  Level Houston Center
Fri 07:32:55 AM 30.4178 -89.2503 248° West 485 558 36,000  Level Houston Center
Fri 07:33:55 AM 30.3681 -89.3953 248° West 485 558 36,000  Level Houston Center
Fri 07:34:56 AM 30.3167 -89.5397 248° West 484 557 36,000  Level Houston Center
Fri 07:35:57 AM 30.2636 -89.6858 247° West 486 559 36,000  Level Houston Center
Fri 07:36:58 AM 30.1811 -89.8150 234° Southwest 481 554 36,000  Level Houston Center
Fri 07:37:59 AM 30.0850 -89.9136 222° Southwest 462 532 36,000  Level Houston Center
Fri 07:39:00 AM 29.9861 -90.0144 221° Southwest 470 541 36,000  Level Houston Center
Fri 07:40:01 AM 29.9186 -90.1428 239° Southwest 483 556 36,000  Level Houston Center
Fri 07:41:02 AM 29.8908 -90.2903 258° West 474 545 36,000  Level Houston Center
Fri 07:42:03 AM 29.8617 -90.4389 257° West 475 547 36,000  Level Houston Center
Fri 07:43:04 AM 29.8328 -90.5894 258° West 481 554 36,000  Level Houston Center
Fri 07:44:06 AM 29.8039 -90.7389 257° West 480 552 36,000  Level Houston Center
Fri 07:45:07 AM 29.7747 -90.8889 257° West 482 555 36,000  Level Houston Center
Fri 07:46:08 AM 29.7447 -91.0386 257° West 482 555 36,000  Level Houston Center
Fri 07:47:09 AM 29.7158 -91.1903 258° West 485 558 36,000  Level Houston Center
Fri 07:48:10 AM 29.6797 -91.3700 257° West 483 556 36,000  Level Houston Center
Fri 07:49:11 AM 29.6486 -91.5219 257° West 487 560 36,000  Level Houston Center
Fri 07:50:12 AM 29.6183 -91.6728 257° West 487 560 36,000  Level Houston Center
Fri 07:51:13 AM 29.5914 -91.8081 257° West 486 559 36,000  Level Houston Center
Fri 07:52:14 AM 29.5597 -91.9597 257° West 486 559 36,000  Level Houston Center
Fri 07:53:16 AM 29.5219 -92.1408 257° West 487 560 36,000  Level Houston Center
Fri 07:54:17 AM 29.4917 -92.2900 257° West 481 554 36,000  Level Houston Center
Fri 07:55:18 AM 29.4386 -92.4281 246° West 477 549 36,000  Level Houston Center
Fri 07:56:19 AM 29.3628 -92.5506 235° Southwest 470 541 36,000  Level Houston Center
Fri 07:57:21 AM 29.2847 -92.6733 234° Southwest 473 544 36,000  Level Houston Center
Fri 07:58:22 AM 29.2192 -92.8031 240° Southwest 481 554 36,000  Level Houston Center
Fri 07:59:23 AM 29.2275 -92.9525 274° West 483 556 36,000 -1,082 Level Houston Center
Fri 08:00:24 AM 29.2725 -93.0981 290° West 488 562 33,800 -2,341 Descending Houston Center
Fri 08:01:26 AM 29.3164 -93.2397 290° West 475 547 31,200 -2,537 Descending Houston Center
Fri 08:02:27 AM 29.3600 -93.3783 290° West 463 533 28,600 -2,557 Descending Houston Center
Fri 08:03:28 AM 29.4033 -93.5186 290° West 466 536 26,000 -2,508 Descending Houston Center
Fri 08:04:29 AM 29.4433 -93.6494 289° West 441 507 23,500 -2,634 Descending Houston Center
Fri 08:05:31 AM 29.4883 -93.8000 289° West 419 482 20,600 -2,585 Descending Houston Center
Fri 08:06:32 AM 29.5167 -93.9244 285° West 408 470 18,200 -2,213 Descending Houston Center
Fri 08:07:33 AM 29.5231 -94.0489 273° West 391 450 16,100 -1,951 Descending Houston Center
Fri 08:08:35 AM 29.5275 -94.1800 272° West 389 448 14,200 -1,512 Descending Houston Center
Fri 08:09:36 AM 29.5319 -94.2967 273° West 373 429 13,000 -836 Descending Houston Center
Fri 08:10:37 AM 29.5567 -94.3989 286° West 345 397 12,500 -878 Descending Houston Center
Fri 08:11:39 AM 29.5992 -94.4967 297° West 344 396 11,200 -1,171 Descending Houston Center
Fri 08:12:40 AM 29.6344 -94.5825 295° West 306 352 10,100 -1,277 Descending Houston Center
Fri 08:13:13 AM 29.6575 -94.6369 296° West 299 344 9,200 -1,596 Descending Houston Center
Fri 08:14:14 AM 29.7206 -94.7011 319° Northwest 287 330 7,600 -1,500 Descending Houston Center
Fri 08:15:09 AM 29.7811 -94.7392 331° Northwest 276 318 6,300 -1,200 Descending Houston Center
Fri 08:15:44 AM 29.8103 -94.7556 334° Northwest 281 323 5,800 -1,545 Descending Houston Center
Fri 08:16:15 AM 29.8586 -94.7825 334° Northwest 280 322 4,600 -2,129 Descending Houston Center
Fri 08:16:46 AM 29.8942 -94.7994 338° Northwest 277 319 3,600 -1,574 Descending Houston Center
Fri 08:17:16 AM 29.9203 -94.8325 312° West 263 303 3,000 -689 Descending Houston Center
Fri 08:17:47 AM 29.9356 -94.8658 298° West 265 305 2,900  Descending Houston Center
Fri 08:18:17 AM 29.9519 -94.9008 298° West 228 262 3,000 -194 Climbing Houston Center
Fri 08:18:49 AM 29.9658 -94.9300 299° West 236 272 2,700 -581 Descending Houston Center
Fri 08:19:50 AM 29.9783 -94.9961 282° West 223 257 2,100 -341 Descending Houston Center
Fri 08:20:52 AM 29.9781 -95.0600 270° West 209 241 2,000 -97 Descending Houston Center

Login

Don't have an account? Register now (free) for customized features, flight alerts, and more!